createdAt,value
2022-12-05T00:01:31.265Z,98.93
2022-12-05T00:04:01.087Z,99.94
2022-12-05T00:06:30.134Z,99.48
2022-12-05T00:08:58.113Z,99.20
2022-12-05T00:11:29.435Z,99.13
2022-12-05T00:13:59.209Z,98.62
2022-12-05T00:16:30.795Z,98.73
2022-12-05T00:19:00.849Z,98.06
2022-12-05T00:21:32.822Z,97.71
2022-12-05T00:24:01.824Z,97.88
2022-12-05T00:26:28.818Z,98.08
2022-12-05T00:28:58.068Z,97.66
2022-12-05T00:31:27.016Z,97.71
2022-12-05T00:33:55.024Z,96.99
2022-12-05T00:36:25.953Z,96.86
2022-12-05T00:38:54.582Z,97.19
2022-12-05T00:41:25.547Z,97.12
2022-12-05T00:43:53.537Z,97.63
2022-12-05T00:46:24.172Z,97.46
2022-12-05T00:48:54.507Z,97.49
2022-12-05T00:51:28.786Z,97.69
2022-12-05T00:53:59.821Z,97.45
2022-12-05T00:56:28.393Z,97.48
2022-12-05T00:58:57.429Z,97.82
2022-12-05T01:01:44.942Z,97.61
2022-12-05T01:04:16.747Z,97.49
2022-12-05T01:06:44.447Z,97.30
2022-12-05T01:09:16.504Z,97.58
2022-12-05T01:11:44.261Z,97.35
2022-12-05T01:14:13.378Z,97.45
2022-12-05T01:16:43.139Z,97.31
2022-12-05T01:19:18.242Z,97.53
2022-12-05T01:21:45.119Z,97.63
2022-12-05T01:24:12.559Z,97.63
2022-12-05T01:26:41.662Z,97.23
2022-12-05T01:29:08.915Z,97.38
2022-12-05T01:31:37.634Z,97.33
2022-12-05T01:34:10.574Z,97.01
2022-12-05T01:36:39.261Z,97.14
2022-12-05T01:39:08.512Z,96.89
2022-12-05T01:41:41.239Z,96.80
2022-12-05T01:44:11.163Z,96.15
2022-12-05T01:46:50.883Z,96.76
2022-12-05T01:49:27.117Z,96.42
2022-12-05T01:51:59.004Z,96.46
2022-12-05T01:54:26.039Z,96.48
2022-12-05T01:57:00.044Z,96.53
2022-12-05T01:59:33.180Z,96.56
2022-12-05T02:02:00.418Z,96.79
2022-12-05T02:04:27.719Z,96.42
2022-12-05T02:06:54.966Z,96.59
2022-12-05T02:09:22.985Z,96.81
2022-12-05T02:12:02.156Z,97.01
2022-12-05T02:15:23.199Z,96.34
2022-12-05T02:18:11.082Z,96.22
2022-12-05T02:20:59.024Z,96.06
2022-12-05T02:24:09.002Z,95.69
2022-12-05T02:26:51.654Z,95.64
2022-12-05T02:29:46.218Z,95.82
2022-12-05T02:32:29.429Z,95.93
2022-12-05T02:35:11.378Z,95.21
2022-12-05T02:37:48.752Z,95.63
2022-12-05T02:40:40.589Z,95.45
2022-12-05T02:43:13.921Z,96.18
2022-12-05T02:45:44.198Z,97.05
2022-12-05T02:48:14.347Z,97.06
2022-12-05T02:50:43.300Z,97.06
2022-12-05T02:53:14.436Z,97.09
2022-12-05T02:55:42.488Z,96.78
2022-12-05T02:58:20.664Z,97.06
2022-12-05T03:00:51.050Z,97.02
2022-12-05T03:03:21.458Z,96.73
2022-12-05T03:06:10.529Z,96.24
2022-12-05T03:08:49.219Z,96.41
2022-12-05T03:11:16.341Z,96.07
2022-12-05T03:13:50.964Z,96.51
2022-12-05T03:16:33.937Z,96.70
2022-12-05T03:19:18.240Z,95.66
2022-12-05T03:22:03.501Z,95.53
2022-12-05T03:24:31.894Z,95.56
2022-12-05T03:27:26.689Z,96.04
2022-12-05T03:30:02.337Z,95.68
2022-12-05T03:33:03.660Z,95.60
2022-12-05T03:36:11.967Z,95.43
2022-12-05T03:38:54.714Z,95.74
2022-12-05T03:41:49.331Z,95.41
2022-12-05T03:44:56.378Z,96.75
2022-12-05T03:47:42.347Z,96.31
2022-12-05T03:50:24.376Z,95.52
2022-12-05T03:53:21.454Z,96.39
2022-12-05T03:55:57.925Z,95.84
2022-12-05T03:58:38.800Z,96.17
2022-12-05T04:01:08.678Z,95.53
2022-12-05T04:03:51.922Z,96.05
2022-12-05T04:06:28.707Z,95.80
2022-12-05T04:09:05.037Z,96.34
2022-12-05T04:11:37.803Z,96.55
2022-12-05T04:14:14.160Z,97.13
2022-12-05T04:17:05.498Z,96.11
2022-12-05T04:20:06.954Z,97.16
2022-12-05T04:22:35.101Z,97.28
2022-12-05T04:25:24.939Z,97.16
2022-12-05T04:28:25.132Z,97.50
2022-12-05T04:31:40.104Z,97.62
2022-12-05T04:34:10.162Z,97.29
2022-12-05T04:37:02.887Z,97.64
2022-12-05T04:39:46.145Z,98.00
2022-12-05T04:42:19.142Z,97.41
2022-12-05T04:45:09.145Z,97.35
2022-12-05T04:47:42.512Z,96.98
2022-12-05T04:50:12.285Z,96.75
2022-12-05T04:52:40.946Z,96.35
2022-12-05T04:55:15.326Z,96.56
2022-12-05T04:58:08.096Z,96.11
2022-12-05T05:01:05.672Z,95.66
2022-12-05T05:04:10.505Z,96.40
2022-12-05T05:06:42.415Z,96.55
2022-12-05T05:09:10.636Z,96.26
2022-12-05T05:11:38.381Z,97.08
2022-12-05T05:14:05.664Z,97.00
2022-12-05T05:16:37.772Z,97.44
2022-12-05T05:19:06.467Z,97.80
2022-12-05T05:21:39.456Z,98.25
2022-12-05T05:24:09.693Z,97.58
2022-12-05T05:26:40.991Z,98.14
2022-12-05T05:29:09.471Z,97.49
2022-12-05T05:31:37.662Z,97.15
2022-12-05T05:34:09.463Z,97.27
2022-12-05T05:36:37.620Z,97.36
2022-12-05T05:39:06.901Z,97.63
2022-12-05T05:41:36.320Z,97.67
2022-12-05T05:44:04.601Z,97.97
2022-12-05T05:46:34.971Z,97.47
2022-12-05T05:49:02.282Z,97.70
2022-12-05T05:51:30.213Z,96.96
2022-12-05T05:53:58.909Z,97.53
2022-12-05T05:56:25.887Z,97.90
2022-12-05T05:59:03.070Z,97.05
2022-12-05T06:01:30.972Z,97.85
2022-12-05T06:03:58.793Z,98.05
2022-12-05T06:06:26.649Z,98.38
2022-12-05T06:08:54.837Z,99.24
2022-12-05T06:11:27.388Z,98.55
2022-12-05T06:14:02.823Z,97.71
2022-12-05T06:16:31.680Z,98.58
2022-12-05T06:18:59.264Z,98.39
2022-12-05T06:21:27.068Z,98.57
2022-12-05T06:23:54.813Z,98.56
2022-12-05T06:26:23.073Z,98.09
2022-12-05T06:28:50.180Z,97.47
2022-12-05T06:31:21.939Z,98.51
2022-12-05T06:33:48.873Z,98.18
2022-12-05T06:36:19.406Z,97.82
2022-12-05T06:38:46.391Z,97.41
2022-12-05T06:41:19.765Z,97.78
2022-12-05T06:43:47.512Z,97.95
2022-12-05T06:46:15.941Z,98.25
2022-12-05T06:48:42.952Z,98.48
2022-12-05T06:51:12.452Z,97.57
2022-12-05T06:53:39.751Z,98.39
2022-12-05T06:56:13.944Z,98.11
2022-12-05T06:58:46.776Z,97.57
2022-12-05T07:01:41.120Z,97.90
2022-12-05T07:04:23.867Z,98.58
2022-12-05T07:06:52.887Z,99.30
2022-12-05T07:09:44.045Z,99.07
2022-12-05T07:12:12.093Z,99.52
2022-12-05T07:14:47.723Z,99.89
2022-12-05T07:17:15.216Z,100.00
2022-12-05T07:19:42.015Z,100.00
2022-12-05T07:22:15.189Z,100.00
2022-12-05T07:24:43.175Z,100.00
2022-12-05T07:27:09.996Z,100.00
2022-12-05T07:29:36.824Z,100.00
2022-12-05T07:32:03.979Z,100.00
2022-12-05T07:34:30.936Z,100.00
2022-12-05T07:36:57.786Z,100.00
2022-12-05T07:39:24.600Z,100.00
2022-12-05T07:41:51.452Z,100.00
2022-12-05T07:44:18.371Z,100.00
2022-12-05T07:46:45.200Z,100.00
2022-12-05T07:49:12.102Z,100.00
2022-12-05T07:51:39.027Z,100.00
2022-12-05T07:54:06.783Z,100.00
2022-12-05T07:56:33.951Z,100.00
2022-12-05T07:59:01.040Z,100.00
2022-12-05T08:01:29.851Z,100.00
2022-12-05T08:04:00.186Z,100.00
2022-12-05T08:06:30.586Z,100.00
2022-12-05T08:08:58.123Z,100.00
2022-12-05T08:11:30.120Z,100.00
2022-12-05T08:13:58.445Z,100.00
2022-12-05T08:16:31.029Z,100.00
2022-12-05T08:19:02.276Z,100.00
2022-12-05T08:21:29.753Z,100.00
2022-12-05T08:23:57.161Z,100.00
2022-12-05T08:26:28.232Z,100.00
2022-12-05T08:28:59.292Z,100.00
2022-12-05T08:31:29.127Z,100.00
2022-12-05T08:34:00.295Z,100.00
2022-12-05T08:36:31.553Z,100.00
2022-12-05T08:39:02.514Z,100.00
2022-12-05T08:41:30.240Z,100.00
2022-12-05T08:44:02.976Z,100.00
2022-12-05T08:46:32.151Z,100.00
2022-12-05T08:48:59.180Z,100.00
2022-12-05T08:51:26.178Z,100.00
2022-12-05T08:53:53.498Z,100.00
2022-12-05T08:56:26.601Z,100.00
2022-12-05T08:58:58.490Z,100.00
2022-12-05T09:01:33.336Z,100.00
2022-12-05T09:04:02.342Z,100.00
2022-12-05T09:06:29.940Z,100.00
2022-12-05T09:09:00.074Z,100.00
2022-12-05T09:11:30.467Z,100.00
2022-12-05T09:13:59.401Z,100.00
2022-12-05T09:16:37.478Z,100.00
2022-12-05T09:19:08.564Z,100.00
2022-12-05T09:21:35.467Z,100.00
2022-12-05T09:24:02.341Z,100.00
2022-12-05T09:26:30.302Z,100.00
2022-12-05T09:28:57.669Z,100.00
2022-12-05T09:31:27.249Z,100.00
2022-12-05T09:33:55.006Z,100.00
2022-12-05T09:36:26.281Z,100.00
2022-12-05T09:38:54.536Z,100.00
2022-12-05T09:41:52.014Z,100.00
2022-12-05T09:45:04.558Z,100.00
2022-12-05T09:48:02.533Z,100.00
2022-12-05T09:50:48.458Z,100.00
2022-12-05T09:53:32.729Z,100.00
2022-12-05T09:56:14.497Z,100.00
2022-12-05T09:58:56.161Z,100.00
2022-12-05T10:01:38.846Z,100.00
2022-12-05T10:04:49.414Z,100.00
2022-12-05T10:07:44.396Z,100.00
2022-12-05T10:10:34.643Z,100.00
2022-12-05T10:13:38.117Z,100.00
2022-12-05T10:16:33.727Z,100.00
2022-12-05T10:19:07.213Z,100.00
2022-12-05T10:22:12.046Z,100.00
2022-12-05T10:24:52.758Z,100.00
2022-12-05T10:27:27.720Z,100.00
2022-12-05T10:30:06.502Z,99.74
2022-12-05T10:33:05.010Z,100.00
2022-12-05T10:35:39.573Z,99.97
2022-12-05T10:38:24.910Z,99.51
2022-12-05T10:40:58.112Z,98.98
2022-12-05T10:43:31.716Z,99.50
2022-12-05T10:46:00.260Z,100.00
2022-12-05T10:48:28.132Z,100.00
2022-12-05T10:50:57.674Z,100.00
2022-12-05T10:53:50.071Z,100.00
2022-12-05T10:56:41.683Z,100.00
2022-12-05T10:59:13.229Z,99.92
2022-12-05T11:01:53.007Z,99.95
2022-12-05T11:04:44.462Z,98.36
2022-12-05T11:07:27.177Z,98.27
2022-12-05T11:09:54.712Z,98.35
2022-12-05T11:12:26.917Z,98.52
2022-12-05T11:15:21.922Z,98.69
2022-12-05T11:17:50.481Z,98.28
2022-12-05T11:20:20.299Z,97.32
2022-12-05T11:22:50.694Z,97.29
2022-12-05T11:25:32.151Z,98.36
2022-12-05T11:28:21.370Z,98.83
2022-12-05T11:31:12.291Z,98.49
2022-12-05T11:33:40.050Z,98.64
2022-12-05T11:36:22.144Z,97.72
2022-12-05T11:38:49.458Z,98.87
2022-12-05T11:41:45.551Z,99.32
2022-12-05T11:44:49.797Z,100.00
2022-12-05T11:48:00.169Z,100.00
2022-12-05T11:51:00.229Z,99.47
2022-12-05T11:53:42.988Z,99.31
2022-12-05T11:56:36.591Z,100.00
2022-12-05T11:59:22.574Z,100.00
2022-12-05T12:02:26.457Z,100.00
2022-12-05T12:05:18.598Z,100.00
2022-12-05T12:08:15.971Z,99.10
2022-12-05T12:11:01.261Z,99.68
2022-12-05T12:14:07.282Z,99.47
2022-12-05T12:17:33.989Z,99.99
2022-12-05T12:20:35.437Z,98.46
2022-12-05T12:23:35.647Z,98.51
2022-12-05T12:26:33.231Z,99.68
2022-12-05T12:29:33.653Z,98.99
2022-12-05T12:32:21.525Z,99.59
2022-12-05T12:35:01.308Z,99.29
2022-12-05T12:37:53.822Z,99.05
2022-12-05T12:40:38.333Z,98.40
2022-12-05T12:43:56.560Z,97.99
2022-12-05T12:46:41.202Z,99.22
2022-12-05T12:49:45.205Z,97.55
2022-12-05T12:52:24.507Z,97.38
2022-12-05T12:55:04.552Z,96.78
2022-12-05T12:58:11.198Z,96.29
2022-12-05T13:01:01.586Z,95.17
2022-12-05T13:03:41.868Z,94.11
2022-12-05T13:06:38.009Z,93.54
2022-12-05T13:09:22.140Z,93.44
2022-12-05T13:11:50.864Z,91.44
2022-12-05T13:14:23.430Z,90.92
2022-12-05T13:16:54.274Z,90.60
2022-12-05T13:19:43.374Z,90.12
2022-12-05T13:22:11.816Z,91.13
2022-12-05T13:24:39.190Z,89.04
2022-12-05T13:27:13.782Z,89.65
2022-12-05T13:30:00.005Z,89.61
2022-12-05T13:32:40.764Z,90.08
2022-12-05T13:35:07.484Z,89.54
2022-12-05T13:37:53.893Z,89.45
2022-12-05T13:40:45.736Z,89.51
2022-12-05T13:43:23.776Z,89.39
2022-12-05T13:46:07.346Z,89.34
2022-12-05T13:48:38.729Z,90.54
2022-12-05T13:51:46.598Z,89.57
2022-12-05T13:54:23.005Z,89.86
2022-12-05T13:56:54.593Z,89.79
2022-12-05T14:00:01.816Z,91.14
2022-12-05T14:02:45.471Z,91.26
2022-12-05T14:05:22.218Z,90.98
2022-12-05T14:07:57.477Z,89.29
2022-12-05T14:10:36.806Z,88.62
2022-12-05T14:13:30.178Z,87.87
2022-12-05T14:16:42.048Z,87.22
2022-12-05T14:19:40.899Z,87.05
2022-12-05T14:22:22.480Z,85.60
2022-12-05T14:25:32.798Z,85.31
2022-12-05T14:28:35.743Z,84.23
2022-12-05T14:31:29.294Z,85.12
2022-12-05T14:34:22.272Z,83.77
2022-12-05T14:37:14.853Z,83.37
2022-12-05T14:40:01.001Z,83.80
2022-12-05T14:42:44.134Z,83.23
2022-12-05T14:45:33.421Z,83.00
2022-12-05T14:48:15.427Z,83.99
2022-12-05T14:50:51.837Z,83.79
2022-12-05T14:53:21.461Z,82.27
2022-12-05T14:55:56.502Z,82.84
2022-12-05T14:59:05.454Z,82.66
2022-12-05T15:01:48.745Z,80.97
2022-12-05T15:04:19.835Z,81.64
2022-12-05T15:06:55.954Z,81.62
2022-12-05T15:09:37.961Z,82.22
2022-12-05T15:12:13.396Z,82.69
2022-12-05T15:15:08.135Z,81.63
2022-12-05T15:17:50.647Z,82.21
2022-12-05T15:20:31.465Z,82.68
2022-12-05T15:23:00.116Z,83.03
2022-12-05T15:25:32.291Z,83.80
2022-12-05T15:28:16.733Z,82.69
2022-12-05T15:30:43.648Z,83.48
2022-12-05T15:33:14.008Z,82.75
2022-12-05T15:35:41.594Z,82.87
2022-12-05T15:38:27.284Z,83.55
2022-12-05T15:40:54.708Z,82.47
2022-12-05T15:43:29.635Z,82.16
2022-12-05T15:46:24.495Z,82.70
2022-12-05T15:48:54.341Z,81.89
2022-12-05T15:51:36.671Z,83.11
2022-12-05T15:54:15.558Z,82.20
2022-12-05T15:56:54.041Z,83.16
2022-12-05T15:59:53.931Z,83.07
2022-12-05T16:02:40.777Z,82.76
2022-12-05T16:05:39.776Z,83.81
2022-12-05T16:08:08.387Z,84.62
2022-12-05T16:10:35.978Z,84.32
2022-12-05T16:13:16.071Z,84.67
2022-12-05T16:15:52.576Z,84.68
2022-12-05T16:18:30.161Z,84.95
2022-12-05T16:20:57.829Z,85.12
2022-12-05T16:23:32.576Z,85.33
2022-12-05T16:26:39.066Z,85.64
2022-12-05T16:29:09.379Z,84.55
2022-12-05T16:31:36.577Z,84.70
2022-12-05T16:34:15.084Z,85.67
2022-12-05T16:36:50.683Z,85.27
2022-12-05T16:39:19.797Z,84.93
2022-12-05T16:41:47.501Z,84.80
2022-12-05T16:45:01.692Z,85.30
2022-12-05T16:47:41.106Z,84.83
2022-12-05T16:50:35.985Z,86.01
2022-12-05T16:53:09.877Z,86.32
2022-12-05T16:55:41.745Z,85.38
2022-12-05T16:58:15.595Z,84.42
2022-12-05T17:00:42.749Z,84.83
2022-12-05T17:03:33.309Z,84.10
2022-12-05T17:06:01.021Z,84.50
2022-12-05T17:08:27.927Z,83.80
2022-12-05T17:10:54.909Z,84.30
2022-12-05T17:13:21.924Z,84.03
2022-12-05T17:15:48.926Z,83.50
2022-12-05T17:18:24.154Z,84.61
2022-12-05T17:20:56.073Z,84.76
2022-12-05T17:23:23.082Z,85.24
2022-12-05T17:25:54.001Z,85.13
2022-12-05T17:28:21.561Z,84.97
2022-12-05T17:30:48.525Z,85.92
2022-12-05T17:33:18.322Z,86.67
2022-12-05T17:35:45.637Z,85.79
2022-12-05T17:38:12.686Z,87.17
2022-12-05T17:40:40.111Z,86.36
2022-12-05T17:43:07.218Z,85.54
2022-12-05T17:45:34.109Z,86.11
2022-12-05T17:48:01.194Z,85.63
2022-12-05T17:50:28.143Z,86.66
2022-12-05T17:53:00.476Z,85.34
2022-12-05T17:55:29.998Z,86.10
2022-12-05T17:57:56.997Z,86.17
2022-12-05T18:00:25.061Z,85.17
2022-12-05T18:02:52.642Z,86.18
2022-12-05T18:05:20.091Z,86.26
2022-12-05T18:07:47.521Z,85.72
2022-12-05T18:10:19.199Z,85.34
2022-12-05T18:12:47.747Z,84.76
2022-12-05T18:15:15.568Z,85.07
2022-12-05T18:17:43.681Z,85.18
2022-12-05T18:20:14.335Z,85.20
2022-12-05T18:22:41.724Z,85.64
2022-12-05T18:25:09.732Z,85.10
2022-12-05T18:27:38.254Z,86.54
2022-12-05T18:30:07.318Z,85.92
2022-12-05T18:32:34.253Z,85.43
2022-12-05T18:35:02.147Z,85.54
2022-12-05T18:37:30.160Z,85.86
2022-12-05T18:39:57.262Z,85.77
2022-12-05T18:42:24.145Z,85.91
2022-12-05T18:44:51.042Z,86.45
2022-12-05T18:47:17.952Z,85.26
2022-12-05T18:49:44.776Z,86.41
2022-12-05T18:52:11.684Z,85.34
2022-12-05T18:54:38.489Z,84.41
2022-12-05T18:57:05.571Z,84.68
2022-12-05T18:59:32.501Z,85.30
2022-12-05T19:02:00.428Z,85.33
2022-12-05T19:04:28.950Z,84.60
2022-12-05T19:06:59.162Z,85.03
2022-12-05T19:09:30.271Z,85.13
2022-12-05T19:11:59.422Z,84.31
2022-12-05T19:14:29.473Z,84.96
2022-12-05T19:17:00.232Z,85.29
2022-12-05T19:19:27.985Z,85.41
2022-12-05T19:21:55.215Z,85.79
2022-12-05T19:24:22.076Z,86.90
2022-12-05T19:26:48.980Z,87.93
2022-12-05T19:29:16.897Z,86.88
2022-12-05T19:31:44.380Z,86.27
2022-12-05T19:34:11.843Z,86.33
2022-12-05T19:36:44.981Z,86.04
2022-12-05T19:39:18.878Z,84.90
2022-12-05T19:41:47.469Z,84.47
2022-12-05T19:44:14.966Z,85.47
2022-12-05T19:46:42.086Z,85.79
2022-12-05T19:49:12.692Z,85.35
2022-12-05T19:51:40.296Z,85.08
2022-12-05T19:54:10.851Z,85.36
2022-12-05T19:56:39.633Z,85.58
2022-12-05T19:59:07.093Z,85.61
2022-12-05T20:01:37.460Z,85.86
2022-12-05T20:04:14.775Z,86.12
2022-12-05T20:06:47.198Z,85.39
2022-12-05T20:09:17.625Z,84.66
2022-12-05T20:11:52.659Z,84.69
2022-12-05T20:14:21.905Z,84.70
2022-12-05T20:16:48.891Z,84.69
2022-12-05T20:19:15.909Z,84.38
2022-12-05T20:21:44.450Z,84.95
2022-12-05T20:24:11.985Z,85.47
2022-12-05T20:26:42.941Z,85.89
2022-12-05T20:29:10.559Z,86.17
2022-12-05T20:31:41.479Z,87.08
2022-12-05T20:34:11.552Z,86.45
2022-12-05T20:36:38.449Z,86.82
2022-12-05T20:39:11.054Z,86.83
2022-12-05T20:41:37.922Z,86.32
2022-12-05T20:44:07.482Z,87.44
2022-12-05T20:46:35.383Z,86.72
2022-12-05T20:49:02.623Z,86.51
2022-12-05T20:51:34.568Z,86.90
2022-12-05T20:54:03.810Z,86.99
2022-12-05T20:56:32.961Z,86.53
2022-12-05T20:59:03.172Z,87.39
2022-12-05T21:01:33.003Z,87.68
2022-12-05T21:04:00.946Z,87.65
2022-12-05T21:06:43.682Z,88.54
2022-12-05T21:09:16.080Z,89.72
2022-12-05T21:11:43.382Z,89.20
2022-12-05T21:14:10.736Z,88.79
2022-12-05T21:16:37.831Z,89.38
2022-12-05T21:19:04.669Z,90.49
2022-12-05T21:21:34.038Z,89.46
2022-12-05T21:24:03.366Z,88.84
2022-12-05T21:26:32.955Z,89.49
2022-12-05T21:29:01.328Z,88.71
2022-12-05T21:31:32.007Z,89.43
2022-12-05T21:34:02.808Z,90.66
2022-12-05T21:36:32.295Z,90.14
2022-12-05T21:38:59.994Z,91.03
2022-12-05T21:41:27.314Z,90.96
2022-12-05T21:43:55.781Z,90.46
2022-12-05T21:46:25.243Z,90.09
2022-12-05T21:48:52.762Z,89.53
2022-12-05T21:51:23.472Z,89.03
2022-12-05T21:53:51.982Z,91.35
2022-12-05T21:56:23.118Z,90.16
2022-12-05T21:58:50.775Z,89.19
2022-12-05T22:01:25.297Z,89.29
2022-12-05T22:04:01.187Z,89.24
2022-12-05T22:06:33.403Z,89.19
2022-12-05T22:09:00.940Z,89.72
2022-12-05T22:11:27.947Z,89.63
2022-12-05T22:13:54.874Z,89.51
2022-12-05T22:16:25.388Z,89.50
2022-12-05T22:18:56.040Z,88.95
2022-12-05T22:21:22.901Z,89.87
2022-12-05T22:23:50.206Z,89.40
2022-12-05T22:26:20.819Z,89.91
2022-12-05T22:28:50.597Z,89.13
2022-12-05T22:31:18.230Z,89.41
2022-12-05T22:33:45.623Z,89.30
2022-12-05T22:36:16.775Z,90.04
2022-12-05T22:38:46.910Z,90.56
2022-12-05T22:41:23.138Z,90.90
2022-12-05T22:43:54.989Z,89.89
2022-12-05T22:46:21.871Z,90.10
2022-12-05T22:48:50.153Z,91.36
2022-12-05T22:51:19.027Z,91.80
2022-12-05T22:53:46.516Z,91.46
2022-12-05T22:56:16.552Z,91.08
2022-12-05T22:58:45.059Z,91.87
2022-12-05T23:01:18.377Z,91.75
2022-12-05T23:03:48.282Z,90.35
2022-12-05T23:06:18.444Z,90.47
2022-12-05T23:08:49.872Z,90.43
2022-12-05T23:11:18.726Z,90.80
2022-12-05T23:13:46.703Z,90.61
2022-12-05T23:16:22.223Z,91.02
2022-12-05T23:18:51.035Z,91.41
2022-12-05T23:21:25.765Z,91.09
2022-12-05T23:23:56.922Z,91.19
2022-12-05T23:26:28.642Z,90.85
2022-12-05T23:28:55.899Z,90.91
2022-12-05T23:31:23.260Z,90.97
2022-12-05T23:33:51.668Z,91.57
2022-12-05T23:36:19.848Z,91.34
2022-12-05T23:38:47.419Z,91.17
2022-12-05T23:41:20.232Z,91.48
2022-12-05T23:43:48.896Z,90.73
2022-12-05T23:46:18.553Z,91.34
2022-12-05T23:48:45.958Z,91.75
2022-12-05T23:51:22.520Z,91.67
2022-12-05T23:53:55.404Z,91.82
2022-12-05T23:56:26.326Z,91.59
2022-12-05T23:58:54.525Z,92.44
